Main page
METAR-TAF:

METAR-TAF

Airports :

Dundee, Scotland

Dundee Airport

latitude: 56-27N, longitude: 003-01W, elevation: 4 m

Current weather observation

The report was made 4 hours and 45 minutes ago, at 19:20 UTC
Wind 2 kt from the West/Northwest
Temperature 12°C
Humidity 76%
Pressure 1016 hPa
Visibility 10 km or more
no clouds below 1500 m and no cumulonimbus

METAR: EGPN 191920Z 30002KT CAVOK 12/08 Q1016

Time: 01:05 (00:05 UTC)

Forecast

The report was made 7 hours and 7 minutes ago, at 16:58 UTC
Forecast valid from 19 at 18 UTC to 19 at 20 UTC
Wind 5 kt from the West/Southwest
Visibility 10 km or more
Few clouds at a height of 3500 ft

TAF: EGPN 191658Z 1918/1920 24005KT 9999 FEW035

Weather observations and forecasts of more than 4000 airports (METAR and TAF reports).

The available stations are represented by yellow and red dots on the map.

Hover mouse over dot to see the name of the station.

Then click to see weather observations and forecasts.

To change the map : click on the green buttons with a black cross to zoom in, on the green button with a dash to zoom out, or on the green arrows for adjacent maps.


METAR-TAF: